Altoona, Alabama
Current Conditions -  °F | °C
As of 2:15 PM on Monday 26 Jan 2015 (Local Time) from K8A0 Reporting Station
Overcast Overcast  
Wind Chill: 29°   Ceiling: 2000
Heat Index: 37°   Visibility: 10mi
Dew Point: 34°   Wind: 15mph
Humidity: 87%   Direction: 290°WNW
Pressure: 29.94"   Gusts: 18mph
Location:  34.03°N, 86.33°W
Report Text: K8A0 262015Z AUTO 29013G16KT 10SM OVC020 03/01 A2994 RMK AO2
Loading
Personal Weather Stations






























Interactive Weather Map New forecast layout! Learn more

10-Day Weather Forecast

Advertisements
Track Severe Weather on mobile